Pays
Station

 

Conditions  météo  pour  Sofia Observ.  -  Bulgarie    Bulgarie

  
9 °C
    
 
 

METAR pour Sofia Observ. :

LBSF 212300Z 00000KT 6000 BKN032 09/07 Q1022 NOSIG

 

Voici le bulletin pour Sofia Observ. - Bulgarie.
 
Le bulletin a été fait il y a un moment, à 23:00 UTC .
Le vent était calme.
 
La température était de 9 °C, avec un point de rosée à 7 °C.
La pression atmosphérique était de 1022 hPa.
L'humidité relative était de 87.3%.
 
Il y avait 5 à 7/8ème de nébulosité à une hauteur de 975 mètres.
 
La visibilité globale était de 6.0 kilomètres.
 

 
 
 

Pays :   A   B   C   D   E   F   G   H   I   J   K   L   M   N   O   P   Q   R   S   T   U   V   W   Y   Z

 

Partenaires :  Info Météo avec Met'info
Météo Marine avec MeteoMarine.net
Infos Site  |  Infos Légales  |  Crédits  |  Confidentialité
Contactez-nous  |  Ajouter aux favoris
© 2013-2018 METAR - Tous droits réservés